sensor_id;sensor_type;location;lat;lon;timestamp;P1;durP1;ratioP1;P2;durP2;ratioP2
41201;SDS011;26936;50.524;8.684;2023-07-13T00:00:46;1.92;;;0.90;;
41201;SDS011;26936;50.524;8.684;2023-07-13T00:03:12;5.10;;;1.10;;
41201;SDS011;26936;50.524;8.684;2023-07-13T00:05:38;2.85;;;0.95;;
41201;SDS011;26936;50.524;8.684;2023-07-13T00:08:04;2.83;;;0.77;;
41201;SDS011;26936;50.524;8.684;2023-07-13T00:10:29;5.55;;;1.20;;
41201;SDS011;26936;50.524;8.684;2023-07-13T00:12:55;2.80;;;0.90;;
41201;SDS011;26936;50.524;8.684;2023-07-13T00:15:22;4.77;;;1.10;;
41201;SDS011;26936;50.524;8.684;2023-07-13T00:17:50;2.95;;;0.85;;
41201;SDS011;26936;50.524;8.684;2023-07-13T00:20:20;6.00;;;1.05;;
41201;SDS011;26936;50.524;8.684;2023-07-13T00:22:48;4.80;;;1.13;;
41201;SDS011;26936;50.524;8.684;2023-07-13T00:25:14;4.03;;;0.95;;
41201;SDS011;26936;50.524;8.684;2023-07-13T00:27:39;1.83;;;0.90;;
41201;SDS011;26936;50.524;8.684;2023-07-13T00:30:05;3.03;;;1.00;;
41201;SDS011;26936;50.524;8.684;2023-07-13T00:32:31;2.80;;;0.60;;
41201;SDS011;26936;50.524;8.684;2023-07-13T00:34:57;2.38;;;0.93;;
41201;SDS011;26936;50.524;8.684;2023-07-13T00:37:23;4.88;;;1.00;;
41201;SDS011;26936;50.524;8.684;2023-07-13T00:39:48;5.20;;;1.10;;
41201;SDS011;26936;50.524;8.684;2023-07-13T00:42:14;2.97;;;0.95;;
41201;SDS011;26936;50.524;8.684;2023-07-13T00:44:40;4.88;;;1.30;;
41201;SDS011;26936;50.524;8.684;2023-07-13T00:47:05;5.45;;;0.85;;
41201;SDS011;26936;50.524;8.684;2023-07-13T00:49:31;3.22;;;0.90;;
41201;SDS011;26936;50.524;8.684;2023-07-13T00:52:00;3.70;;;1.10;;
41201;SDS011;26936;50.524;8.684;2023-07-13T00:54:37;7.70;;;1.40;;
41201;SDS011;26936;50.524;8.684;2023-07-13T00:57:08;5.63;;;1.20;;
41201;SDS011;26936;50.524;8.684;2023-07-13T00:59:37;4.75;;;0.80;;
41201;SDS011;26936;50.524;8.684;2023-07-13T01:02:06;3.53;;;1.00;;
41201;SDS011;26936;50.524;8.684;2023-07-13T01:04:31;9.57;;;1.30;;
41201;SDS011;26936;50.524;8.684;2023-07-13T01:06:58;3.33;;;1.20;;
41201;SDS011;26936;50.524;8.684;2023-07-13T01:09:23;4.15;;;1.20;;
41201;SDS011;26936;50.524;8.684;2023-07-13T01:11:50;2.40;;;1.00;;
41201;SDS011;26936;50.524;8.684;2023-07-13T01:14:16;3.30;;;0.95;;
41201;SDS011;26936;50.524;8.684;2023-07-13T01:16:42;4.43;;;0.90;;
41201;SDS011;26936;50.524;8.684;2023-07-13T01:19:32;4.90;;;1.25;;
41201;SDS011;26936;50.524;8.684;2023-07-13T01:22:08;4.05;;;1.10;;
41201;SDS011;26936;50.524;8.684;2023-07-13T01:24:37;2.77;;;0.87;;
41201;SDS011;26936;50.524;8.684;2023-07-13T01:27:03;5.35;;;0.95;;
41201;SDS011;26936;50.524;8.684;2023-07-13T01:29:31;3.55;;;0.95;;
41201;SDS011;26936;50.524;8.684;2023-07-13T01:31:57;2.15;;;0.90;;
41201;SDS011;26936;50.524;8.684;2023-07-13T01:34:23;3.47;;;1.02;;
41201;SDS011;26936;50.524;8.684;2023-07-13T01:36:48;5.40;;;0.93;;
41201;SDS011;26936;50.524;8.684;2023-07-13T01:39:13;4.07;;;0.90;;
41201;SDS011;26936;50.524;8.684;2023-07-13T01:41:39;3.58;;;1.23;;
41201;SDS011;26936;50.524;8.684;2023-07-13T01:44:05;3.15;;;1.08;;
41201;SDS011;26936;50.524;8.684;2023-07-13T01:46:30;3.27;;;1.10;;
41201;SDS011;26936;50.524;8.684;2023-07-13T01:48:55;4.05;;;1.30;;
41201;SDS011;26936;50.524;8.684;2023-07-13T01:51:20;3.37;;;1.30;;
41201;SDS011;26936;50.524;8.684;2023-07-13T01:53:46;2.83;;;1.05;;
41201;SDS011;26936;50.524;8.684;2023-07-13T01:56:11;4.03;;;1.33;;
41201;SDS011;26936;50.524;8.684;2023-07-13T01:58:36;4.90;;;1.08;;
41201;SDS011;26936;50.524;8.684;2023-07-13T02:01:02;3.57;;;0.73;;
41201;SDS011;26936;50.524;8.684;2023-07-13T02:03:27;4.83;;;1.63;;
41201;SDS011;26936;50.524;8.684;2023-07-13T02:05:52;6.47;;;1.13;;
41201;SDS011;26936;50.524;8.684;2023-07-13T02:08:17;3.63;;;0.98;;
41201;SDS011;26936;50.524;8.684;2023-07-13T02:10:43;3.20;;;1.33;;
41201;SDS011;26936;50.524;8.684;2023-07-13T02:13:08;4.77;;;1.00;;
41201;SDS011;26936;50.524;8.684;2023-07-13T02:15:33;4.50;;;1.27;;
41201;SDS011;26936;50.524;8.684;2023-07-13T02:17:58;4.50;;;1.10;;
41201;SDS011;26936;50.524;8.684;2023-07-13T02:20:24;6.65;;;1.20;;
41201;SDS011;26936;50.524;8.684;2023-07-13T02:22:51;3.65;;;1.10;;
41201;SDS011;26936;50.524;8.684;2023-07-13T02:25:16;2.92;;;0.90;;
41201;SDS011;26936;50.524;8.684;2023-07-13T02:27:41;3.23;;;1.17;;
41201;SDS011;26936;50.524;8.684;2023-07-13T02:30:07;4.50;;;1.30;;
41201;SDS011;26936;50.524;8.684;2023-07-13T02:32:33;1.95;;;1.00;;
41201;SDS011;26936;50.524;8.684;2023-07-13T02:34:58;6.15;;;1.10;;
41201;SDS011;26936;50.524;8.684;2023-07-13T02:37:24;4.43;;;1.05;;
41201;SDS011;26936;50.524;8.684;2023-07-13T02:39:49;2.85;;;0.77;;
41201;SDS011;26936;50.524;8.684;2023-07-13T02:42:15;3.88;;;1.30;;
41201;SDS011;26936;50.524;8.684;2023-07-13T02:44:40;6.85;;;1.10;;
41201;SDS011;26936;50.524;8.684;2023-07-13T02:47:05;3.20;;;1.20;;
41201;SDS011;26936;50.524;8.684;2023-07-13T02:49:31;4.40;;;1.00;;
41201;SDS011;26936;50.524;8.684;2023-07-13T02:51:56;6.82;;;1.15;;
41201;SDS011;26936;50.524;8.684;2023-07-13T02:54:22;5.15;;;1.10;;
41201;SDS011;26936;50.524;8.684;2023-07-13T02:56:47;7.65;;;1.40;;
41201;SDS011;26936;50.524;8.684;2023-07-13T02:59:12;6.38;;;1.30;;
41201;SDS011;26936;50.524;8.684;2023-07-13T03:01:38;4.00;;;1.30;;
41201;SDS011;26936;50.524;8.684;2023-07-13T03:04:03;5.10;;;1.05;;
41201;SDS011;26936;50.524;8.684;2023-07-13T03:06:30;5.80;;;1.35;;
41201;SDS011;26936;50.524;8.684;2023-07-13T03:08:56;3.88;;;0.90;;
41201;SDS011;26936;50.524;8.684;2023-07-13T03:11:22;6.10;;;1.30;;
41201;SDS011;26936;50.524;8.684;2023-07-13T03:13:47;6.60;;;1.20;;
41201;SDS011;26936;50.524;8.684;2023-07-13T03:16:13;5.20;;;1.08;;
41201;SDS011;26936;50.524;8.684;2023-07-13T03:18:40;5.90;;;1.00;;
41201;SDS011;26936;50.524;8.684;2023-07-13T03:21:06;3.97;;;0.88;;
41201;SDS011;26936;50.524;8.684;2023-07-13T03:23:31;3.55;;;1.02;;
41201;SDS011;26936;50.524;8.684;2023-07-13T03:26:07;4.43;;;1.67;;
41201;SDS011;26936;50.524;8.684;2023-07-13T03:28:35;6.60;;;1.48;;
41201;SDS011;26936;50.524;8.684;2023-07-13T03:31:35;5.75;;;1.10;;
41201;SDS011;26936;50.524;8.684;2023-07-13T03:33:54;4.55;;;1.00;;
41201;SDS011;26936;50.524;8.684;2023-07-13T03:36:22;6.15;;;0.80;;
41201;SDS011;26936;50.524;8.684;2023-07-13T03:38:50;5.43;;;1.50;;
41201;SDS011;26936;50.524;8.684;2023-07-13T03:41:17;3.47;;;1.02;;
41201;SDS011;26936;50.524;8.684;2023-07-13T03:43:43;4.30;;;0.93;;
41201;SDS011;26936;50.524;8.684;2023-07-13T03:46:08;5.75;;;0.98;;
41201;SDS011;26936;50.524;8.684;2023-07-13T03:48:34;3.92;;;0.93;;
41201;SDS011;26936;50.524;8.684;2023-07-13T03:51:00;4.88;;;1.30;;
41201;SDS011;26936;50.524;8.684;2023-07-13T03:53:25;2.28;;;0.95;;
41201;SDS011;26936;50.524;8.684;2023-07-13T03:55:51;3.88;;;1.05;;
41201;SDS011;26936;50.524;8.684;2023-07-13T03:58:23;4.97;;;1.35;;
41201;SDS011;26936;50.524;8.684;2023-07-13T04:01:00;4.40;;;1.50;;
41201;SDS011;26936;50.524;8.684;2023-07-13T04:03:27;8.65;;;1.30;;
41201;SDS011;26936;50.524;8.684;2023-07-13T04:05:55;6.82;;;1.58;;
41201;SDS011;26936;50.524;8.684;2023-07-13T04:08:28;3.55;;;1.00;;
41201;SDS011;26936;50.524;8.684;2023-07-13T04:10:55;5.15;;;1.35;;
41201;SDS011;26936;50.524;8.684;2023-07-13T04:13:21;3.75;;;1.15;;
41201;SDS011;26936;50.524;8.684;2023-07-13T04:15:46;5.25;;;1.10;;
41201;SDS011;26936;50.524;8.684;2023-07-13T04:18:11;3.90;;;1.00;;
41201;SDS011;26936;50.524;8.684;2023-07-13T04:20:37;4.38;;;1.10;;
41201;SDS011;26936;50.524;8.684;2023-07-13T04:23:02;8.37;;;1.10;;
41201;SDS011;26936;50.524;8.684;2023-07-13T04:25:27;3.30;;;0.90;;
41201;SDS011;26936;50.524;8.684;2023-07-13T04:27:53;5.57;;;1.33;;
41201;SDS011;26936;50.524;8.684;2023-07-13T04:30:19;5.60;;;1.10;;
41201;SDS011;26936;50.524;8.684;2023-07-13T04:32:45;6.05;;;1.00;;
41201;SDS011;26936;50.524;8.684;2023-07-13T04:35:10;6.18;;;1.08;;
41201;SDS011;26936;50.524;8.684;2023-07-13T04:37:36;3.67;;;1.20;;
41201;SDS011;26936;50.524;8.684;2023-07-13T04:40:01;4.53;;;1.30;;
41201;SDS011;26936;50.524;8.684;2023-07-13T04:42:28;3.65;;;0.93;;
41201;SDS011;26936;50.524;8.684;2023-07-13T04:44:54;5.53;;;1.08;;
41201;SDS011;26936;50.524;8.684;2023-07-13T04:47:19;4.13;;;1.00;;
41201;SDS011;26936;50.524;8.684;2023-07-13T04:49:44;7.95;;;1.45;;
41201;SDS011;26936;50.524;8.684;2023-07-13T04:52:10;7.78;;;1.60;;
41201;SDS011;26936;50.524;8.684;2023-07-13T04:54:36;5.78;;;1.70;;
41201;SDS011;26936;50.524;8.684;2023-07-13T04:57:03;3.42;;;1.33;;
41201;SDS011;26936;50.524;8.684;2023-07-13T04:59:31;7.05;;;0.90;;
41201;SDS011;26936;50.524;8.684;2023-07-13T05:01:57;4.60;;;1.13;;
41201;SDS011;26936;50.524;8.684;2023-07-13T05:04:22;4.43;;;1.00;;
41201;SDS011;26936;50.524;8.684;2023-07-13T05:06:47;3.80;;;0.97;;
41201;SDS011;26936;50.524;8.684;2023-07-13T05:09:12;6.35;;;1.10;;
41201;SDS011;26936;50.524;8.684;2023-07-13T05:11:38;4.20;;;1.17;;
41201;SDS011;26936;50.524;8.684;2023-07-13T05:14:04;7.00;;;1.38;;
41201;SDS011;26936;50.524;8.684;2023-07-13T05:16:29;4.47;;;1.50;;
41201;SDS011;26936;50.524;8.684;2023-07-13T05:18:55;4.60;;;1.60;;
41201;SDS011;26936;50.524;8.684;2023-07-13T05:21:20;4.72;;;1.00;;
41201;SDS011;26936;50.524;8.684;2023-07-13T05:23:47;6.82;;;0.98;;
41201;SDS011;26936;50.524;8.684;2023-07-13T05:26:13;4.15;;;0.90;;
41201;SDS011;26936;50.524;8.684;2023-07-13T05:28:38;4.30;;;1.33;;
41201;SDS011;26936;50.524;8.684;2023-07-13T05:31:04;3.53;;;0.93;;
41201;SDS011;26936;50.524;8.684;2023-07-13T05:33:30;4.55;;;1.35;;
41201;SDS011;26936;50.524;8.684;2023-07-13T05:35:55;3.17;;;1.30;;
41201;SDS011;26936;50.524;8.684;2023-07-13T05:38:21;4.22;;;1.10;;
41201;SDS011;26936;50.524;8.684;2023-07-13T05:40:46;6.40;;;1.40;;
41201;SDS011;26936;50.524;8.684;2023-07-13T05:43:12;6.63;;;1.10;;
41201;SDS011;26936;50.524;8.684;2023-07-13T05:45:38;4.03;;;1.10;;
41201;SDS011;26936;50.524;8.684;2023-07-13T05:48:04;4.22;;;1.05;;
41201;SDS011;26936;50.524;8.684;2023-07-13T05:50:29;2.78;;;1.00;;
41201;SDS011;26936;50.524;8.684;2023-07-13T05:52:55;4.20;;;1.10;;
41201;SDS011;26936;50.524;8.684;2023-07-13T05:55:21;2.78;;;1.10;;
41201;SDS011;26936;50.524;8.684;2023-07-13T05:57:46;2.22;;;0.68;;
41201;SDS011;26936;50.524;8.684;2023-07-13T06:00:12;4.38;;;1.00;;
41201;SDS011;26936;50.524;8.684;2023-07-13T06:02:38;3.33;;;1.10;;
41201;SDS011;26936;50.524;8.684;2023-07-13T06:05:03;6.95;;;1.00;;
41201;SDS011;26936;50.524;8.684;2023-07-13T06:07:30;3.50;;;0.80;;
41201;SDS011;26936;50.524;8.684;2023-07-13T06:09:55;3.70;;;0.90;;
41201;SDS011;26936;50.524;8.684;2023-07-13T06:12:20;1.65;;;0.45;;
41201;SDS011;26936;50.524;8.684;2023-07-13T06:14:46;5.03;;;0.70;;
41201;SDS011;26936;50.524;8.684;2023-07-13T06:17:11;4.37;;;0.80;;
41201;SDS011;26936;50.524;8.684;2023-07-13T06:19:36;2.45;;;0.60;;
41201;SDS011;26936;50.524;8.684;2023-07-13T06:22:02;2.88;;;0.93;;
41201;SDS011;26936;50.524;8.684;2023-07-13T06:24:27;2.63;;;0.85;;
41201;SDS011;26936;50.524;8.684;2023-07-13T06:26:53;2.55;;;1.02;;
41201;SDS011;26936;50.524;8.684;2023-07-13T06:29:18;3.83;;;1.45;;
41201;SDS011;26936;50.524;8.684;2023-07-13T06:31:43;4.13;;;0.95;;
41201;SDS011;26936;50.524;8.684;2023-07-13T06:34:08;2.43;;;0.90;;
41201;SDS011;26936;50.524;8.684;2023-07-13T06:36:34;4.03;;;0.70;;
41201;SDS011;26936;50.524;8.684;2023-07-13T06:39:01;4.80;;;0.85;;
41201;SDS011;26936;50.524;8.684;2023-07-13T06:41:26;3.90;;;0.90;;
41201;SDS011;26936;50.524;8.684;2023-07-13T06:43:52;1.60;;;0.57;;
41201;SDS011;26936;50.524;8.684;2023-07-13T06:46:19;3.45;;;1.00;;
41201;SDS011;26936;50.524;8.684;2023-07-13T06:48:46;4.47;;;1.23;;
41201;SDS011;26936;50.524;8.684;2023-07-13T06:51:12;4.20;;;1.15;;
41201;SDS011;26936;50.524;8.684;2023-07-13T06:53:37;8.95;;;1.05;;
41201;SDS011;26936;50.524;8.684;2023-07-13T06:56:03;3.97;;;1.25;;
41201;SDS011;26936;50.524;8.684;2023-07-13T06:58:28;4.00;;;0.73;;
41201;SDS011;26936;50.524;8.684;2023-07-13T07:00:53;6.45;;;1.27;;
41201;SDS011;26936;50.524;8.684;2023-07-13T07:03:19;7.20;;;1.20;;
41201;SDS011;26936;50.524;8.684;2023-07-13T07:05:44;2.40;;;0.80;;
41201;SDS011;26936;50.524;8.684;2023-07-13T07:08:09;3.20;;;0.73;;
41201;SDS011;26936;50.524;8.684;2023-07-13T07:10:35;2.75;;;0.60;;
41201;SDS011;26936;50.524;8.684;2023-07-13T07:13:01;3.30;;;0.70;;
41201;SDS011;26936;50.524;8.684;2023-07-13T07:15:26;1.88;;;0.60;;
41201;SDS011;26936;50.524;8.684;2023-07-13T07:17:52;1.92;;;0.50;;
41201;SDS011;26936;50.524;8.684;2023-07-13T07:20:17;3.28;;;0.70;;
41201;SDS011;26936;50.524;8.684;2023-07-13T07:22:43;4.50;;;1.02;;
41201;SDS011;26936;50.524;8.684;2023-07-13T07:25:08;2.50;;;0.47;;
41201;SDS011;26936;50.524;8.684;2023-07-13T07:27:33;2.97;;;0.68;;
41201;SDS011;26936;50.524;8.684;2023-07-13T07:29:59;3.83;;;0.50;;
41201;SDS011;26936;50.524;8.684;2023-07-13T07:32:24;1.85;;;0.70;;
41201;SDS011;26936;50.524;8.684;2023-07-13T07:34:50;3.33;;;0.70;;
41201;SDS011;26936;50.524;8.684;2023-07-13T07:37:15;3.00;;;0.90;;
41201;SDS011;26936;50.524;8.684;2023-07-13T07:39:42;3.35;;;0.93;;
41201;SDS011;26936;50.524;8.684;2023-07-13T07:42:08;1.50;;;0.70;;
41201;SDS011;26936;50.524;8.684;2023-07-13T07:44:34;4.72;;;0.77;;
41201;SDS011;26936;50.524;8.684;2023-07-13T07:47:00;3.97;;;0.77;;
41201;SDS011;26936;50.524;8.684;2023-07-13T07:49:25;2.83;;;0.88;;
41201;SDS011;26936;50.524;8.684;2023-07-13T07:51:51;2.37;;;0.70;;
41201;SDS011;26936;50.524;8.684;2023-07-13T07:54:16;2.60;;;0.90;;
41201;SDS011;26936;50.524;8.684;2023-07-13T07:56:41;1.20;;;0.60;;
41201;SDS011;26936;50.524;8.684;2023-07-13T07:59:07;2.45;;;0.70;;
41201;SDS011;26936;50.524;8.684;2023-07-13T08:01:32;3.83;;;0.70;;
41201;SDS011;26936;50.524;8.684;2023-07-13T08:03:57;6.80;;;0.80;;
41201;SDS011;26936;50.524;8.684;2023-07-13T08:06:23;3.90;;;0.88;;
41201;SDS011;26936;50.524;8.684;2023-07-13T08:08:48;4.97;;;0.88;;
41201;SDS011;26936;50.524;8.684;2023-07-13T08:11:14;3.33;;;0.60;;
41201;SDS011;26936;50.524;8.684;2023-07-13T08:13:39;2.95;;;0.70;;
41201;SDS011;26936;50.524;8.684;2023-07-13T08:16:05;3.28;;;0.65;;
41201;SDS011;26936;50.524;8.684;2023-07-13T08:18:31;6.82;;;0.95;;
41201;SDS011;26936;50.524;8.684;2023-07-13T08:20:56;1.08;;;0.50;;
41201;SDS011;26936;50.524;8.684;2023-07-13T08:23:23;3.50;;;0.88;;
41201;SDS011;26936;50.524;8.684;2023-07-13T08:25:52;3.38;;;0.77;;
41201;SDS011;26936;50.524;8.684;2023-07-13T08:28:19;2.17;;;0.70;;
41201;SDS011;26936;50.524;8.684;2023-07-13T08:30:45;3.42;;;0.73;;
41201;SDS011;26936;50.524;8.684;2023-07-13T08:33:14;0.85;;;0.52;;
41201;SDS011;26936;50.524;8.684;2023-07-13T08:35:52;1.60;;;0.50;;
41201;SDS011;26936;50.524;8.684;2023-07-13T08:38:18;4.43;;;1.00;;
41201;SDS011;26936;50.524;8.684;2023-07-13T08:40:43;2.72;;;0.80;;
41201;SDS011;26936;50.524;8.684;2023-07-13T08:43:16;2.90;;;0.57;;
41201;SDS011;26936;50.524;8.684;2023-07-13T08:46:28;2.72;;;0.45;;
41201;SDS011;26936;50.524;8.684;2023-07-13T08:48:44;3.70;;;0.50;;
41201;SDS011;26936;50.524;8.684;2023-07-13T08:53:54;1.50;;;0.60;;
41201;SDS011;26936;50.524;8.684;2023-07-13T08:56:26;2.58;;;0.60;;
41201;SDS011;26936;50.524;8.684;2023-07-13T08:58:57;1.02;;;0.57;;
41201;SDS011;26936;50.524;8.684;2023-07-13T09:04:10;1.40;;;0.50;;
41201;SDS011;26936;50.524;8.684;2023-07-13T09:06:49;1.92;;;0.60;;
41201;SDS011;26936;50.524;8.684;2023-07-13T09:12:21;2.08;;;0.50;;
41201;SDS011;26936;50.524;8.684;2023-07-13T09:14:53;3.00;;;0.40;;
41201;SDS011;26936;50.524;8.684;2023-07-13T09:17:24;3.35;;;0.57;;
41201;SDS011;26936;50.524;8.684;2023-07-13T09:20:08;0.93;;;0.43;;
41201;SDS011;26936;50.524;8.684;2023-07-13T09:22:42;3.92;;;0.75;;
41201;SDS011;26936;50.524;8.684;2023-07-13T09:25:21;2.42;;;0.68;;
41201;SDS011;26936;50.524;8.684;2023-07-13T09:27:52;4.65;;;0.43;;
41201;SDS011;26936;50.524;8.684;2023-07-13T09:30:30;1.45;;;0.30;;
41201;SDS011;26936;50.524;8.684;2023-07-13T09:33:01;1.40;;;0.52;;
41201;SDS011;26936;50.524;8.684;2023-07-13T09:35:27;2.80;;;0.30;;
41201;SDS011;26936;50.524;8.684;2023-07-13T09:37:57;1.83;;;0.60;;
41201;SDS011;26936;50.524;8.684;2023-07-13T09:40:28;2.10;;;0.40;;
41201;SDS011;26936;50.524;8.684;2023-07-13T09:43:01;1.35;;;0.50;;
41201;SDS011;26936;50.524;8.684;2023-07-13T09:45:29;2.60;;;0.93;;
41201;SDS011;26936;50.524;8.684;2023-07-13T09:48:12;3.60;;;0.50;;
41201;SDS011;26936;50.524;8.684;2023-07-13T09:50:39;1.88;;;0.30;;
41201;SDS011;26936;50.524;8.684;2023-07-13T09:53:11;1.13;;;0.60;;
41201;SDS011;26936;50.524;8.684;2023-07-13T09:55:44;2.55;;;0.40;;
41201;SDS011;26936;50.524;8.684;2023-07-13T09:58:19;0.98;;;0.40;;
41201;SDS011;26936;50.524;8.684;2023-07-13T10:03:41;1.80;;;0.90;;
41201;SDS011;26936;50.524;8.684;2023-07-13T10:06:19;1.88;;;0.50;;
41201;SDS011;26936;50.524;8.684;2023-07-13T10:08:50;1.33;;;0.60;;
41201;SDS011;26936;50.524;8.684;2023-07-13T10:13:42;1.63;;;0.27;;
41201;SDS011;26936;50.524;8.684;2023-07-13T10:16:10;1.50;;;0.65;;
41201;SDS011;26936;50.524;8.684;2023-07-13T10:21:17;1.90;;;0.47;;
41201;SDS011;26936;50.524;8.684;2023-07-13T10:23:50;2.10;;;0.63;;
41201;SDS011;26936;50.524;8.684;2023-07-13T10:26:21;0.65;;;0.40;;
41201;SDS011;26936;50.524;8.684;2023-07-13T10:28:56;2.38;;;0.50;;
41201;SDS011;26936;50.524;8.684;2023-07-13T10:31:24;2.17;;;0.50;;
41201;SDS011;26936;50.524;8.684;2023-07-13T10:33:50;1.55;;;0.55;;
41201;SDS011;26936;50.524;8.684;2023-07-13T10:38:59;0.63;;;0.40;;
41201;SDS011;26936;50.524;8.684;2023-07-13T10:41:28;1.08;;;0.45;;
41201;SDS011;26936;50.524;8.684;2023-07-13T10:43:57;3.88;;;0.65;;
41201;SDS011;26936;50.524;8.684;2023-07-13T10:46:24;0.88;;;0.55;;
41201;SDS011;26936;50.524;8.684;2023-07-13T10:48:55;2.00;;;0.85;;
41201;SDS011;26936;50.524;8.684;2023-07-13T10:51:27;1.20;;;0.60;;
41201;SDS011;26936;50.524;8.684;2023-07-13T10:54:11;2.47;;;0.60;;
41201;SDS011;26936;50.524;8.684;2023-07-13T10:56:36;2.22;;;0.70;;
41201;SDS011;26936;50.524;8.684;2023-07-13T11:01:55;3.65;;;0.80;;
41201;SDS011;26936;50.524;8.684;2023-07-13T11:04:23;2.70;;;0.68;;
41201;SDS011;26936;50.524;8.684;2023-07-13T11:06:52;3.00;;;0.60;;
41201;SDS011;26936;50.524;8.684;2023-07-13T11:11:46;3.10;;;0.60;;
41201;SDS011;26936;50.524;8.684;2023-07-13T11:14:26;2.05;;;0.68;;
41201;SDS011;26936;50.524;8.684;2023-07-13T11:19:53;1.27;;;0.70;;
41201;SDS011;26936;50.524;8.684;2023-07-13T11:22:26;3.63;;;1.05;;
41201;SDS011;26936;50.524;8.684;2023-07-13T11:25:27;1.67;;;0.60;;
41201;SDS011;26936;50.524;8.684;2023-07-13T11:30:32;2.58;;;0.68;;
41201;SDS011;26936;50.524;8.684;2023-07-13T11:33:02;2.53;;;0.80;;
41201;SDS011;26936;50.524;8.684;2023-07-13T11:35:38;2.03;;;0.63;;
41201;SDS011;26936;50.524;8.684;2023-07-13T11:38:22;3.50;;;0.70;;
41201;SDS011;26936;50.524;8.684;2023-07-13T11:40:53;2.58;;;0.70;;
41201;SDS011;26936;50.524;8.684;2023-07-13T11:43:20;1.52;;;0.55;;
41201;SDS011;26936;50.524;8.684;2023-07-13T11:45:48;3.20;;;0.77;;
41201;SDS011;26936;50.524;8.684;2023-07-13T11:48:18;2.15;;;0.60;;
41201;SDS011;26936;50.524;8.684;2023-07-13T11:50:50;6.90;;;0.60;;
41201;SDS011;26936;50.524;8.684;2023-07-13T11:53:18;4.60;;;0.90;;
41201;SDS011;26936;50.524;8.684;2023-07-13T11:55:44;3.78;;;0.73;;
41201;SDS011;26936;50.524;8.684;2023-07-13T11:58:10;1.27;;;0.55;;
41201;SDS011;26936;50.524;8.684;2023-07-13T12:00:36;2.95;;;0.75;;
41201;SDS011;26936;50.524;8.684;2023-07-13T12:03:03;3.00;;;0.65;;
41201;SDS011;26936;50.524;8.684;2023-07-13T12:05:30;2.33;;;0.70;;
41201;SDS011;26936;50.524;8.684;2023-07-13T12:07:57;2.15;;;0.70;;
41201;SDS011;26936;50.524;8.684;2023-07-13T12:10:24;1.75;;;0.47;;
41201;SDS011;26936;50.524;8.684;2023-07-13T12:13:07;1.23;;;0.68;;
41201;SDS011;26936;50.524;8.684;2023-07-13T12:15:40;2.30;;;0.55;;
41201;SDS011;26936;50.524;8.684;2023-07-13T12:18:15;1.60;;;0.63;;
41201;SDS011;26936;50.524;8.684;2023-07-13T12:20:44;2.15;;;0.60;;
41201;SDS011;26936;50.524;8.684;2023-07-13T12:23:30;2.33;;;0.80;;
41201;SDS011;26936;50.524;8.684;2023-07-13T12:25:58;1.45;;;0.50;;
41201;SDS011;26936;50.524;8.684;2023-07-13T12:28:36;2.05;;;0.50;;
41201;SDS011;26936;50.524;8.684;2023-07-13T12:31:05;2.67;;;0.60;;
41201;SDS011;26936;50.524;8.684;2023-07-13T12:33:44;2.85;;;0.80;;
41201;SDS011;26936;50.524;8.684;2023-07-13T12:36:09;4.68;;;0.63;;
41201;SDS011;26936;50.524;8.684;2023-07-13T12:38:37;1.40;;;0.63;;
41201;SDS011;26936;50.524;8.684;2023-07-13T12:41:02;1.33;;;0.88;;
41201;SDS011;26936;50.524;8.684;2023-07-13T12:43:28;1.35;;;0.50;;
41201;SDS011;26936;50.524;8.684;2023-07-13T12:46:03;1.42;;;0.70;;
41201;SDS011;26936;50.524;8.684;2023-07-13T12:48:42;3.08;;;0.70;;
41201;SDS011;26936;50.524;8.684;2023-07-13T12:51:11;2.00;;;0.55;;
41201;SDS011;26936;50.524;8.684;2023-07-13T12:53:41;2.25;;;0.77;;
41201;SDS011;26936;50.524;8.684;2023-07-13T12:56:15;2.75;;;0.90;;
41201;SDS011;26936;50.524;8.684;2023-07-13T12:58:46;3.33;;;0.75;;
41201;SDS011;26936;50.524;8.684;2023-07-13T13:01:15;0.90;;;0.50;;
41201;SDS011;26936;50.524;8.684;2023-07-13T13:03:46;2.55;;;0.75;;
41201;SDS011;26936;50.524;8.684;2023-07-13T13:08:43;1.77;;;0.70;;
41201;SDS011;26936;50.524;8.684;2023-07-13T13:11:10;2.70;;;0.57;;
41201;SDS011;26936;50.524;8.684;2023-07-13T13:13:35;2.42;;;0.65;;
41201;SDS011;26936;50.524;8.684;2023-07-13T13:16:23;2.50;;;0.80;;
41201;SDS011;26936;50.524;8.684;2023-07-13T13:18:48;2.45;;;0.60;;
41201;SDS011;26936;50.524;8.684;2023-07-13T13:21:15;1.60;;;0.90;;
41201;SDS011;26936;50.524;8.684;2023-07-13T13:23:41;1.30;;;0.77;;
41201;SDS011;26936;50.524;8.684;2023-07-13T13:26:10;1.90;;;0.63;;
41201;SDS011;26936;50.524;8.684;2023-07-13T13:28:36;1.75;;;0.60;;
41201;SDS011;26936;50.524;8.684;2023-07-13T13:31:02;1.97;;;0.77;;
41201;SDS011;26936;50.524;8.684;2023-07-13T13:33:27;2.70;;;0.90;;
41201;SDS011;26936;50.524;8.684;2023-07-13T13:35:52;4.47;;;0.95;;
41201;SDS011;26936;50.524;8.684;2023-07-13T13:38:23;3.38;;;0.63;;
41201;SDS011;26936;50.524;8.684;2023-07-13T13:40:51;5.38;;;0.80;;
41201;SDS011;26936;50.524;8.684;2023-07-13T13:43:17;3.17;;;0.90;;
41201;SDS011;26936;50.524;8.684;2023-07-13T13:45:44;4.10;;;0.90;;
41201;SDS011;26936;50.524;8.684;2023-07-13T13:48:15;6.18;;;0.88;;
41201;SDS011;26936;50.524;8.684;2023-07-13T13:50:43;1.93;;;0.70;;
41201;SDS011;26936;50.524;8.684;2023-07-13T13:53:12;2.83;;;0.90;;
41201;SDS011;26936;50.524;8.684;2023-07-13T13:55:38;1.92;;;0.75;;
41201;SDS011;26936;50.524;8.684;2023-07-13T13:58:06;3.50;;;1.13;;
41201;SDS011;26936;50.524;8.684;2023-07-13T14:00:35;2.85;;;0.70;;
41201;SDS011;26936;50.524;8.684;2023-07-13T14:03:01;1.95;;;0.95;;
41201;SDS011;26936;50.524;8.684;2023-07-13T14:05:27;1.42;;;0.77;;
41201;SDS011;26936;50.524;8.684;2023-07-13T14:07:53;1.95;;;0.70;;
41201;SDS011;26936;50.524;8.684;2023-07-13T14:10:20;3.65;;;0.80;;
41201;SDS011;26936;50.524;8.684;2023-07-13T14:12:46;4.05;;;1.00;;
41201;SDS011;26936;50.524;8.684;2023-07-13T14:15:20;4.75;;;1.05;;
41201;SDS011;26936;50.524;8.684;2023-07-13T14:17:51;1.42;;;0.80;;
41201;SDS011;26936;50.524;8.684;2023-07-13T14:20:17;4.85;;;1.20;;
41201;SDS011;26936;50.524;8.684;2023-07-13T14:22:44;3.42;;;0.90;;
41201;SDS011;26936;50.524;8.684;2023-07-13T14:25:11;2.90;;;0.73;;
41201;SDS011;26936;50.524;8.684;2023-07-13T14:27:37;5.25;;;0.60;;
41201;SDS011;26936;50.524;8.684;2023-07-13T14:30:04;2.78;;;0.85;;
41201;SDS011;26936;50.524;8.684;2023-07-13T14:32:37;3.10;;;0.68;;
41201;SDS011;26936;50.524;8.684;2023-07-13T14:35:02;2.10;;;0.95;;
41201;SDS011;26936;50.524;8.684;2023-07-13T14:37:28;3.03;;;0.93;;
41201;SDS011;26936;50.524;8.684;2023-07-13T14:39:54;4.55;;;0.95;;
41201;SDS011;26936;50.524;8.684;2023-07-13T14:42:19;4.88;;;1.00;;
41201;SDS011;26936;50.524;8.684;2023-07-13T14:44:44;6.10;;;0.70;;
41201;SDS011;26936;50.524;8.684;2023-07-13T14:47:10;2.50;;;1.10;;
41201;SDS011;26936;50.524;8.684;2023-07-13T14:49:37;2.33;;;0.95;;
41201;SDS011;26936;50.524;8.684;2023-07-13T14:54:41;1.98;;;0.80;;
41201;SDS011;26936;50.524;8.684;2023-07-13T14:57:18;2.00;;;0.65;;
41201;SDS011;26936;50.524;8.684;2023-07-13T14:59:45;3.78;;;0.82;;
41201;SDS011;26936;50.524;8.684;2023-07-13T15:02:15;1.73;;;0.65;;
41201;SDS011;26936;50.524;8.684;2023-07-13T15:04:42;2.10;;;0.90;;
41201;SDS011;26936;50.524;8.684;2023-07-13T15:07:11;1.48;;;0.57;;
41201;SDS011;26936;50.524;8.684;2023-07-13T15:09:38;2.35;;;0.82;;
41201;SDS011;26936;50.524;8.684;2023-07-13T15:12:03;1.55;;;0.80;;
41201;SDS011;26936;50.524;8.684;2023-07-13T15:14:30;3.50;;;0.82;;
41201;SDS011;26936;50.524;8.684;2023-07-13T15:16:55;4.05;;;0.68;;
41201;SDS011;26936;50.524;8.684;2023-07-13T15:19:21;1.85;;;0.73;;
41201;SDS011;26936;50.524;8.684;2023-07-13T15:21:48;3.47;;;1.00;;
41201;SDS011;26936;50.524;8.684;2023-07-13T15:24:14;3.20;;;0.80;;
41201;SDS011;26936;50.524;8.684;2023-07-13T15:26:40;3.17;;;1.00;;